sensor_id;sensor_type;location;lat;lon;timestamp;temperature;humidity
21298;DHT22;10808;48.010;11.326;2024-03-08T00:02:14;2.00;99.90
21298;DHT22;10808;48.010;11.326;2024-03-08T00:04:40;2.00;99.90
21298;DHT22;10808;48.010;11.326;2024-03-08T00:07:06;2.00;99.90
21298;DHT22;10808;48.010;11.326;2024-03-08T00:09:33;2.00;99.90
21298;DHT22;10808;48.010;11.326;2024-03-08T00:11:59;2.00;99.90
21298;DHT22;10808;48.010;11.326;2024-03-08T00:14:25;2.00;99.90
21298;DHT22;10808;48.010;11.326;2024-03-08T00:16:51;2.00;99.90
21298;DHT22;10808;48.010;11.326;2024-03-08T00:19:18;1.90;99.90
21298;DHT22;10808;48.010;11.326;2024-03-08T00:21:44;1.90;99.90
21298;DHT22;10808;48.010;11.326;2024-03-08T00:24:11;1.90;99.90
21298;DHT22;10808;48.010;11.326;2024-03-08T00:26:37;1.90;99.90
21298;DHT22;10808;48.010;11.326;2024-03-08T00:29:03;1.90;99.90
21298;DHT22;10808;48.010;11.326;2024-03-08T00:31:30;2.00;99.90
21298;DHT22;10808;48.010;11.326;2024-03-08T00:33:57;1.90;99.90
21298;DHT22;10808;48.010;11.326;2024-03-08T00:36:23;1.90;99.90
21298;DHT22;10808;48.010;11.326;2024-03-08T00:38:50;1.90;99.90
21298;DHT22;10808;48.010;11.326;2024-03-08T00:41:16;1.80;99.90
21298;DHT22;10808;48.010;11.326;2024-03-08T00:43:42;1.80;99.90
21298;DHT22;10808;48.010;11.326;2024-03-08T00:46:08;1.80;99.90
21298;DHT22;10808;48.010;11.326;2024-03-08T00:48:34;1.80;99.90
21298;DHT22;10808;48.010;11.326;2024-03-08T00:51:02;1.70;99.90
21298;DHT22;10808;48.010;11.326;2024-03-08T00:53:28;1.80;99.90
21298;DHT22;10808;48.010;11.326;2024-03-08T00:55:54;1.80;99.90
21298;DHT22;10808;48.010;11.326;2024-03-08T00:58:20;1.70;99.90
21298;DHT22;10808;48.010;11.326;2024-03-08T01:00:47;1.70;99.90
21298;DHT22;10808;48.010;11.326;2024-03-08T01:03:13;1.70;99.90
21298;DHT22;10808;48.010;11.326;2024-03-08T01:05:39;1.70;99.90
21298;DHT22;10808;48.010;11.326;2024-03-08T01:08:05;1.70;99.90
21298;DHT22;10808;48.010;11.326;2024-03-08T01:10:31;1.70;99.90
21298;DHT22;10808;48.010;11.326;2024-03-08T01:12:57;1.80;99.90
21298;DHT22;10808;48.010;11.326;2024-03-08T01:15:25;1.70;99.90
21298;DHT22;10808;48.010;11.326;2024-03-08T01:17:51;1.70;99.90
21298;DHT22;10808;48.010;11.326;2024-03-08T01:20:17;1.80;99.90
21298;DHT22;10808;48.010;11.326;2024-03-08T01:22:43;1.80;99.90
21298;DHT22;10808;48.010;11.326;2024-03-08T01:25:09;1.80;99.90
21298;DHT22;10808;48.010;11.326;2024-03-08T01:27:35;1.80;99.90
21298;DHT22;10808;48.010;11.326;2024-03-08T01:30:03;1.80;99.90
21298;DHT22;10808;48.010;11.326;2024-03-08T01:32:29;1.80;99.90
21298;DHT22;10808;48.010;11.326;2024-03-08T01:34:55;1.80;99.90
21298;DHT22;10808;48.010;11.326;2024-03-08T01:37:21;1.90;99.90
21298;DHT22;10808;48.010;11.326;2024-03-08T01:39:47;1.90;99.90
21298;DHT22;10808;48.010;11.326;2024-03-08T01:42:13;1.90;99.90
21298;DHT22;10808;48.010;11.326;2024-03-08T01:44:41;1.90;99.90
21298;DHT22;10808;48.010;11.326;2024-03-08T01:47:07;1.90;99.90
21298;DHT22;10808;48.010;11.326;2024-03-08T01:49:33;1.90;99.90
21298;DHT22;10808;48.010;11.326;2024-03-08T01:51:59;1.90;99.90
21298;DHT22;10808;48.010;11.326;2024-03-08T01:54:26;1.90;99.90
21298;DHT22;10808;48.010;11.326;2024-03-08T01:56:52;1.90;99.90
21298;DHT22;10808;48.010;11.326;2024-03-08T01:59:19;2.00;99.90
21298;DHT22;10808;48.010;11.326;2024-03-08T02:01:45;2.00;99.90
21298;DHT22;10808;48.010;11.326;2024-03-08T02:04:11;2.00;99.90
21298;DHT22;10808;48.010;11.326;2024-03-08T02:06:37;1.90;99.90
21298;DHT22;10808;48.010;11.326;2024-03-08T02:09:04;1.90;99.90
21298;DHT22;10808;48.010;11.326;2024-03-08T02:11:36;1.90;99.90
21298;DHT22;10808;48.010;11.326;2024-03-08T02:14:02;1.80;99.90
21298;DHT22;10808;48.010;11.326;2024-03-08T02:16:28;1.90;99.90
21298;DHT22;10808;48.010;11.326;2024-03-08T02:18:54;1.90;99.90
21298;DHT22;10808;48.010;11.326;2024-03-08T02:21:20;1.90;99.90
21298;DHT22;10808;48.010;11.326;2024-03-08T02:23:46;1.90;99.90
21298;DHT22;10808;48.010;11.326;2024-03-08T02:26:13;1.80;99.90
21298;DHT22;10808;48.010;11.326;2024-03-08T02:28:39;1.80;99.90
21298;DHT22;10808;48.010;11.326;2024-03-08T02:31:05;1.80;99.90
21298;DHT22;10808;48.010;11.326;2024-03-08T02:33:34;1.80;99.90
21298;DHT22;10808;48.010;11.326;2024-03-08T02:36:00;1.80;99.90
21298;DHT22;10808;48.010;11.326;2024-03-08T02:38:26;1.70;99.90
21298;DHT22;10808;48.010;11.326;2024-03-08T02:40:53;1.70;99.90
21298;DHT22;10808;48.010;11.326;2024-03-08T02:43:20;1.70;99.90
21298;DHT22;10808;48.010;11.326;2024-03-08T02:45:48;1.70;99.90
21298;DHT22;10808;48.010;11.326;2024-03-08T02:48:15;1.70;99.90
21298;DHT22;10808;48.010;11.326;2024-03-08T02:50:42;1.80;99.90
21298;DHT22;10808;48.010;11.326;2024-03-08T02:53:11;1.70;99.90
21298;DHT22;10808;48.010;11.326;2024-03-08T02:55:39;1.70;99.90
21298;DHT22;10808;48.010;11.326;2024-03-08T02:58:07;1.70;99.90
21298;DHT22;10808;48.010;11.326;2024-03-08T03:00:36;1.70;99.90
21298;DHT22;10808;48.010;11.326;2024-03-08T03:03:03;1.70;99.90
21298;DHT22;10808;48.010;11.326;2024-03-08T03:05:30;1.70;99.90
21298;DHT22;10808;48.010;11.326;2024-03-08T03:07:56;1.60;99.90
21298;DHT22;10808;48.010;11.326;2024-03-08T03:10:24;1.60;99.90
21298;DHT22;10808;48.010;11.326;2024-03-08T03:12:50;1.70;99.90
21298;DHT22;10808;48.010;11.326;2024-03-08T03:15:17;1.60;99.90
21298;DHT22;10808;48.010;11.326;2024-03-08T03:17:47;1.60;99.90
21298;DHT22;10808;48.010;11.326;2024-03-08T03:20:13;1.60;99.90
21298;DHT22;10808;48.010;11.326;2024-03-08T03:22:40;1.60;99.90
21298;DHT22;10808;48.010;11.326;2024-03-08T03:25:07;1.60;99.90
21298;DHT22;10808;48.010;11.326;2024-03-08T03:27:35;1.60;99.90
21298;DHT22;10808;48.010;11.326;2024-03-08T03:30:03;1.60;99.90
21298;DHT22;10808;48.010;11.326;2024-03-08T03:32:49;1.60;99.90
21298;DHT22;10808;48.010;11.326;2024-03-08T03:35:20;1.60;99.90
21298;DHT22;10808;48.010;11.326;2024-03-08T03:37:47;1.60;99.90
21298;DHT22;10808;48.010;11.326;2024-03-08T03:40:33;1.70;99.90
21298;DHT22;10808;48.010;11.326;2024-03-08T03:42:59;1.70;99.90
21298;DHT22;10808;48.010;11.326;2024-03-08T03:45:26;1.70;99.90
21298;DHT22;10808;48.010;11.326;2024-03-08T03:47:52;1.70;99.90
21298;DHT22;10808;48.010;11.326;2024-03-08T03:50:18;1.70;99.90
21298;DHT22;10808;48.010;11.326;2024-03-08T03:52:46;1.70;99.90
21298;DHT22;10808;48.010;11.326;2024-03-08T03:55:12;1.70;99.90
21298;DHT22;10808;48.010;11.326;2024-03-08T03:57:39;1.60;99.90
21298;DHT22;10808;48.010;11.326;2024-03-08T04:00:06;1.70;99.90
21298;DHT22;10808;48.010;11.326;2024-03-08T04:02:37;1.70;99.90
21298;DHT22;10808;48.010;11.326;2024-03-08T04:05:08;1.70;99.90
21298;DHT22;10808;48.010;11.326;2024-03-08T04:07:35;1.80;99.90
21298;DHT22;10808;48.010;11.326;2024-03-08T04:10:03;1.80;99.90
21298;DHT22;10808;48.010;11.326;2024-03-08T04:12:29;1.80;99.90
21298;DHT22;10808;48.010;11.326;2024-03-08T04:14:55;1.80;99.90
21298;DHT22;10808;48.010;11.326;2024-03-08T04:17:22;1.70;99.90
21298;DHT22;10808;48.010;11.326;2024-03-08T04:19:50;1.70;99.90
21298;DHT22;10808;48.010;11.326;2024-03-08T04:22:16;1.70;99.90
21298;DHT22;10808;48.010;11.326;2024-03-08T04:24:44;1.70;99.90
21298;DHT22;10808;48.010;11.326;2024-03-08T04:27:10;1.70;99.90
21298;DHT22;10808;48.010;11.326;2024-03-08T04:29:36;1.70;99.90
21298;DHT22;10808;48.010;11.326;2024-03-08T04:32:04;1.70;99.90
21298;DHT22;10808;48.010;11.326;2024-03-08T04:34:31;1.70;99.90
21298;DHT22;10808;48.010;11.326;2024-03-08T04:36:57;1.70;99.90
21298;DHT22;10808;48.010;11.326;2024-03-08T04:39:24;1.70;99.90
21298;DHT22;10808;48.010;11.326;2024-03-08T04:41:50;1.80;99.90
21298;DHT22;10808;48.010;11.326;2024-03-08T04:44:17;1.70;99.90
21298;DHT22;10808;48.010;11.326;2024-03-08T04:46:43;1.70;99.90
21298;DHT22;10808;48.010;11.326;2024-03-08T04:49:10;1.80;99.90
21298;DHT22;10808;48.010;11.326;2024-03-08T04:51:37;1.70;99.90
21298;DHT22;10808;48.010;11.326;2024-03-08T04:54:03;1.70;99.90
21298;DHT22;10808;48.010;11.326;2024-03-08T04:56:30;1.70;99.90
21298;DHT22;10808;48.010;11.326;2024-03-08T04:58:57;1.60;99.90
21298;DHT22;10808;48.010;11.326;2024-03-08T05:01:23;1.60;99.90
21298;DHT22;10808;48.010;11.326;2024-03-08T05:03:49;1.60;99.90
21298;DHT22;10808;48.010;11.326;2024-03-08T05:06:16;1.70;99.90
21298;DHT22;10808;48.010;11.326;2024-03-08T05:08:42;1.70;99.90
21298;DHT22;10808;48.010;11.326;2024-03-08T05:11:08;1.70;99.90
21298;DHT22;10808;48.010;11.326;2024-03-08T05:13:35;1.80;99.90
21298;DHT22;10808;48.010;11.326;2024-03-08T05:16:01;1.80;99.90
21298;DHT22;10808;48.010;11.326;2024-03-08T05:18:27;1.80;99.90
21298;DHT22;10808;48.010;11.326;2024-03-08T05:20:58;1.90;99.90
21298;DHT22;10808;48.010;11.326;2024-03-08T05:23:24;1.90;99.90
21298;DHT22;10808;48.010;11.326;2024-03-08T05:25:50;1.90;99.90
21298;DHT22;10808;48.010;11.326;2024-03-08T05:28:16;1.90;99.90
21298;DHT22;10808;48.010;11.326;2024-03-08T05:30:42;1.80;99.90
21298;DHT22;10808;48.010;11.326;2024-03-08T05:33:08;1.80;99.90
21298;DHT22;10808;48.010;11.326;2024-03-08T05:35:37;1.80;99.90
21298;DHT22;10808;48.010;11.326;2024-03-08T05:38:03;1.80;99.90
21298;DHT22;10808;48.010;11.326;2024-03-08T05:40:29;1.80;99.90
21298;DHT22;10808;48.010;11.326;2024-03-08T05:42:58;1.80;99.90
21298;DHT22;10808;48.010;11.326;2024-03-08T05:45:25;1.90;99.90
21298;DHT22;10808;48.010;11.326;2024-03-08T05:47:52;1.90;99.90
21298;DHT22;10808;48.010;11.326;2024-03-08T05:50:18;1.90;99.90
21298;DHT22;10808;48.010;11.326;2024-03-08T05:52:45;1.90;99.90
21298;DHT22;10808;48.010;11.326;2024-03-08T05:55:13;1.90;99.90
21298;DHT22;10808;48.010;11.326;2024-03-08T05:57:41;1.90;99.90
21298;DHT22;10808;48.010;11.326;2024-03-08T06:00:08;2.00;99.90
21298;DHT22;10808;48.010;11.326;2024-03-08T06:02:38;2.00;99.90
21298;DHT22;10808;48.010;11.326;2024-03-08T06:05:09;2.00;99.90
21298;DHT22;10808;48.010;11.326;2024-03-08T06:07:36;2.00;99.90
21298;DHT22;10808;48.010;11.326;2024-03-08T06:10:02;2.00;99.90
21298;DHT22;10808;48.010;11.326;2024-03-08T06:12:29;2.00;99.90
21298;DHT22;10808;48.010;11.326;2024-03-08T06:14:58;2.00;99.90
21298;DHT22;10808;48.010;11.326;2024-03-08T06:17:24;2.00;99.90
21298;DHT22;10808;48.010;11.326;2024-03-08T06:19:51;2.00;99.90
21298;DHT22;10808;48.010;11.326;2024-03-08T06:22:18;2.00;99.90
21298;DHT22;10808;48.010;11.326;2024-03-08T06:24:45;2.00;99.90
21298;DHT22;10808;48.010;11.326;2024-03-08T06:27:11;2.00;99.90
21298;DHT22;10808;48.010;11.326;2024-03-08T06:29:37;2.00;99.90
21298;DHT22;10808;48.010;11.326;2024-03-08T06:32:03;2.00;99.90
21298;DHT22;10808;48.010;11.326;2024-03-08T06:34:32;2.00;99.90
21298;DHT22;10808;48.010;11.326;2024-03-08T06:37:00;2.00;99.90
21298;DHT22;10808;48.010;11.326;2024-03-08T06:39:27;1.90;99.90
21298;DHT22;10808;48.010;11.326;2024-03-08T06:41:57;2.00;99.90
21298;DHT22;10808;48.010;11.326;2024-03-08T06:44:23;2.00;99.90
21298;DHT22;10808;48.010;11.326;2024-03-08T06:46:49;2.00;99.90
21298;DHT22;10808;48.010;11.326;2024-03-08T06:49:15;2.00;99.90
21298;DHT22;10808;48.010;11.326;2024-03-08T06:51:41;2.00;99.90
21298;DHT22;10808;48.010;11.326;2024-03-08T06:54:07;2.00;99.90
21298;DHT22;10808;48.010;11.326;2024-03-08T06:56:35;2.10;99.90
21298;DHT22;10808;48.010;11.326;2024-03-08T06:59:01;2.10;99.90
21298;DHT22;10808;48.010;11.326;2024-03-08T07:01:29;2.00;99.90
21298;DHT22;10808;48.010;11.326;2024-03-08T07:03:58;2.00;99.90
21298;DHT22;10808;48.010;11.326;2024-03-08T07:06:24;1.90;99.90
21298;DHT22;10808;48.010;11.326;2024-03-08T07:08:50;1.90;99.90
21298;DHT22;10808;48.010;11.326;2024-03-08T07:11:16;2.00;99.90
21298;DHT22;10808;48.010;11.326;2024-03-08T07:13:47;2.00;99.90
21298;DHT22;10808;48.010;11.326;2024-03-08T07:16:13;2.00;99.90
21298;DHT22;10808;48.010;11.326;2024-03-08T07:18:39;2.00;99.90
21298;DHT22;10808;48.010;11.326;2024-03-08T07:21:09;2.10;99.90
21298;DHT22;10808;48.010;11.326;2024-03-08T07:23:38;2.20;99.90
21298;DHT22;10808;48.010;11.326;2024-03-08T07:26:27;2.30;99.90
21298;DHT22;10808;48.010;11.326;2024-03-08T07:28:53;2.40;99.90
21298;DHT22;10808;48.010;11.326;2024-03-08T07:31:21;2.40;99.90
21298;DHT22;10808;48.010;11.326;2024-03-08T07:34:04;2.50;99.90
21298;DHT22;10808;48.010;11.326;2024-03-08T07:36:36;2.50;99.90
21298;DHT22;10808;48.010;11.326;2024-03-08T07:39:02;2.50;99.90
21298;DHT22;10808;48.010;11.326;2024-03-08T07:41:31;2.60;99.90
21298;DHT22;10808;48.010;11.326;2024-03-08T07:43:57;2.60;99.90
21298;DHT22;10808;48.010;11.326;2024-03-08T07:46:23;2.60;99.90
21298;DHT22;10808;48.010;11.326;2024-03-08T07:48:49;2.60;99.90
21298;DHT22;10808;48.010;11.326;2024-03-08T07:51:18;2.60;99.90
21298;DHT22;10808;48.010;11.326;2024-03-08T07:53:44;2.70;99.90
21298;DHT22;10808;48.010;11.326;2024-03-08T07:56:10;2.80;99.90
21298;DHT22;10808;48.010;11.326;2024-03-08T07:58:39;2.80;99.90
21298;DHT22;10808;48.010;11.326;2024-03-08T08:01:06;2.80;99.90
21298;DHT22;10808;48.010;11.326;2024-03-08T08:03:33;2.90;99.90
21298;DHT22;10808;48.010;11.326;2024-03-08T08:05:59;2.90;99.90
21298;DHT22;10808;48.010;11.326;2024-03-08T08:08:25;3.00;99.90
21298;DHT22;10808;48.010;11.326;2024-03-08T08:10:52;3.00;99.90
21298;DHT22;10808;48.010;11.326;2024-03-08T08:13:18;3.10;99.90
21298;DHT22;10808;48.010;11.326;2024-03-08T08:15:44;3.20;99.90
21298;DHT22;10808;48.010;11.326;2024-03-08T08:18:10;3.30;99.90
21298;DHT22;10808;48.010;11.326;2024-03-08T08:20:36;3.30;99.90
21298;DHT22;10808;48.010;11.326;2024-03-08T08:23:03;3.40;99.90
21298;DHT22;10808;48.010;11.326;2024-03-08T08:25:32;3.40;99.90
21298;DHT22;10808;48.010;11.326;2024-03-08T08:28:00;3.40;99.90
21298;DHT22;10808;48.010;11.326;2024-03-08T08:30:26;3.50;99.90
21298;DHT22;10808;48.010;11.326;2024-03-08T08:32:52;3.60;99.90
21298;DHT22;10808;48.010;11.326;2024-03-08T08:35:18;3.60;99.90
21298;DHT22;10808;48.010;11.326;2024-03-08T08:37:45;3.70;99.90
21298;DHT22;10808;48.010;11.326;2024-03-08T08:40:11;3.80;99.90
21298;DHT22;10808;48.010;11.326;2024-03-08T08:42:40;3.90;99.90
21298;DHT22;10808;48.010;11.326;2024-03-08T08:45:07;4.00;99.90
21298;DHT22;10808;48.010;11.326;2024-03-08T08:47:36;4.00;99.90
21298;DHT22;10808;48.010;11.326;2024-03-08T08:50:03;4.00;99.90
21298;DHT22;10808;48.010;11.326;2024-03-08T08:52:33;4.10;99.90
21298;DHT22;10808;48.010;11.326;2024-03-08T08:55:00;4.20;99.90
21298;DHT22;10808;48.010;11.326;2024-03-08T08:57:26;4.30;99.90
21298;DHT22;10808;48.010;11.326;2024-03-08T08:59:53;4.50;99.90
21298;DHT22;10808;48.010;11.326;2024-03-08T09:02:21;4.60;99.90
21298;DHT22;10808;48.010;11.326;2024-03-08T09:04:47;4.70;99.90
21298;DHT22;10808;48.010;11.326;2024-03-08T09:07:14;4.80;99.90
21298;DHT22;10808;48.010;11.326;2024-03-08T09:09:42;4.80;99.90
21298;DHT22;10808;48.010;11.326;2024-03-08T09:12:08;4.80;99.90
21298;DHT22;10808;48.010;11.326;2024-03-08T09:14:35;4.80;99.90
21298;DHT22;10808;48.010;11.326;2024-03-08T09:17:01;4.90;99.90
21298;DHT22;10808;48.010;11.326;2024-03-08T09:19:27;5.10;99.90
21298;DHT22;10808;48.010;11.326;2024-03-08T09:21:54;5.20;99.90
21298;DHT22;10808;48.010;11.326;2024-03-08T09:24:20;5.40;99.90
21298;DHT22;10808;48.010;11.326;2024-03-08T09:26:46;5.60;99.90
21298;DHT22;10808;48.010;11.326;2024-03-08T09:29:13;5.80;99.90
21298;DHT22;10808;48.010;11.326;2024-03-08T09:31:39;5.90;99.90
21298;DHT22;10808;48.010;11.326;2024-03-08T09:34:05;6.00;99.90
21298;DHT22;10808;48.010;11.326;2024-03-08T09:36:34;6.00;99.90
21298;DHT22;10808;48.010;11.326;2024-03-08T09:39:00;6.10;99.90
21298;DHT22;10808;48.010;11.326;2024-03-08T09:41:26;6.30;99.90
21298;DHT22;10808;48.010;11.326;2024-03-08T09:43:53;6.50;99.90
21298;DHT22;10808;48.010;11.326;2024-03-08T09:46:19;6.50;99.90
21298;DHT22;10808;48.010;11.326;2024-03-08T09:48:46;6.70;99.90
21298;DHT22;10808;48.010;11.326;2024-03-08T09:51:12;6.80;99.90
21298;DHT22;10808;48.010;11.326;2024-03-08T09:53:41;7.10;99.90
21298;DHT22;10808;48.010;11.326;2024-03-08T09:56:10;7.40;99.90
21298;DHT22;10808;48.010;11.326;2024-03-08T09:58:37;7.60;99.90
21298;DHT22;10808;48.010;11.326;2024-03-08T10:01:17;7.80;99.90
21298;DHT22;10808;48.010;11.326;2024-03-08T10:03:44;8.10;99.90
21298;DHT22;10808;48.010;11.326;2024-03-08T10:06:14;8.50;99.90
21298;DHT22;10808;48.010;11.326;2024-03-08T10:08:40;8.90;99.90
21298;DHT22;10808;48.010;11.326;2024-03-08T10:11:07;9.20;99.90
21298;DHT22;10808;48.010;11.326;2024-03-08T10:13:33;9.50;99.90
21298;DHT22;10808;48.010;11.326;2024-03-08T10:16:00;9.90;99.90
21298;DHT22;10808;48.010;11.326;2024-03-08T10:18:26;10.00;99.90
21298;DHT22;10808;48.010;11.326;2024-03-08T10:21:06;10.30;99.90
21298;DHT22;10808;48.010;11.326;2024-03-08T10:23:33;10.60;99.90
21298;DHT22;10808;48.010;11.326;2024-03-08T10:26:15;10.90;99.90
21298;DHT22;10808;48.010;11.326;2024-03-08T10:28:42;11.20;99.90
21298;DHT22;10808;48.010;11.326;2024-03-08T10:31:10;11.50;99.90
21298;DHT22;10808;48.010;11.326;2024-03-08T10:33:36;11.80;99.60
21298;DHT22;10808;48.010;11.326;2024-03-08T10:36:06;12.00;99.20
21298;DHT22;10808;48.010;11.326;2024-03-08T10:38:37;12.20;98.50
21298;DHT22;10808;48.010;11.326;2024-03-08T10:41:06;12.40;98.70
21298;DHT22;10808;48.010;11.326;2024-03-08T10:44:12;12.60;98.20
21298;DHT22;10808;48.010;11.326;2024-03-08T10:47:00;12.60;98.00
21298;DHT22;10808;48.010;11.326;2024-03-08T10:49:55;13.00;97.80
21298;DHT22;10808;48.010;11.326;2024-03-08T10:52:29;13.10;96.40
21298;DHT22;10808;48.010;11.326;2024-03-08T10:54:57;13.30;97.90
21298;DHT22;10808;48.010;11.326;2024-03-08T10:57:24;13.40;96.80
21298;DHT22;10808;48.010;11.326;2024-03-08T10:59:50;13.80;98.20
21298;DHT22;10808;48.010;11.326;2024-03-08T11:02:17;14.30;97.90
21298;DHT22;10808;48.010;11.326;2024-03-08T11:04:48;14.50;96.40
21298;DHT22;10808;48.010;11.326;2024-03-08T11:07:15;14.60;97.00
21298;DHT22;10808;48.010;11.326;2024-03-08T11:09:48;14.70;97.40
21298;DHT22;10808;48.010;11.326;2024-03-08T11:12:27;15.00;96.90
21298;DHT22;10808;48.010;11.326;2024-03-08T11:15:09;15.10;95.10
21298;DHT22;10808;48.010;11.326;2024-03-08T11:20:10;15.10;95.10
21298;DHT22;10808;48.010;11.326;2024-03-08T11:22:54;15.00;94.60
21298;DHT22;10808;48.010;11.326;2024-03-08T11:25:38;15.20;95.60
21298;DHT22;10808;48.010;11.326;2024-03-08T11:28:14;15.40;94.00
21298;DHT22;10808;48.010;11.326;2024-03-08T11:33:31;16.20;95.60
21298;DHT22;10808;48.010;11.326;2024-03-08T11:38:45;16.30;94.20
21298;DHT22;10808;48.010;11.326;2024-03-08T11:41:21;16.40;93.70
21298;DHT22;10808;48.010;11.326;2024-03-08T11:43:48;16.20;93.10
21298;DHT22;10808;48.010;11.326;2024-03-08T11:46:16;16.40;94.20
21298;DHT22;10808;48.010;11.326;2024-03-08T11:48:44;16.40;93.70
21298;DHT22;10808;48.010;11.326;2024-03-08T11:51:15;16.70;93.40
21298;DHT22;10808;48.010;11.326;2024-03-08T11:53:41;16.80;93.10
21298;DHT22;10808;48.010;11.326;2024-03-08T11:56:08;16.40;91.60
21298;DHT22;10808;48.010;11.326;2024-03-08T11:58:35;16.40;93.30
21298;DHT22;10808;48.010;11.326;2024-03-08T12:01:06;16.60;93.20
21298;DHT22;10808;48.010;11.326;2024-03-08T12:03:33;16.80;94.00
21298;DHT22;10808;48.010;11.326;2024-03-08T12:06:00;17.00;91.60
21298;DHT22;10808;48.010;11.326;2024-03-08T12:08:27;17.00;91.50
21298;DHT22;10808;48.010;11.326;2024-03-08T12:10:57;17.00;94.60
21298;DHT22;10808;48.010;11.326;2024-03-08T12:13:27;17.40;92.80
21298;DHT22;10808;48.010;11.326;2024-03-08T12:15:58;17.60;92.70
21298;DHT22;10808;48.010;11.326;2024-03-08T12:18:28;17.60;91.70
21298;DHT22;10808;48.010;11.326;2024-03-08T12:21:10;17.60;90.80
21298;DHT22;10808;48.010;11.326;2024-03-08T12:23:37;17.70;91.40
21298;DHT22;10808;48.010;11.326;2024-03-08T12:26:23;17.80;90.90
21298;DHT22;10808;48.010;11.326;2024-03-08T12:28:49;17.80;90.60
21298;DHT22;10808;48.010;11.326;2024-03-08T12:31:19;17.60;90.40
21298;DHT22;10808;48.010;11.326;2024-03-08T12:33:51;17.90;93.20
21298;DHT22;10808;48.010;11.326;2024-03-08T12:36:19;18.00;91.10
21298;DHT22;10808;48.010;11.326;2024-03-08T12:38:46;17.80;90.00
21298;DHT22;10808;48.010;11.326;2024-03-08T12:41:16;17.80;91.70
21298;DHT22;10808;48.010;11.326;2024-03-08T12:43:43;17.90;91.40
21298;DHT22;10808;48.010;11.326;2024-03-08T12:46:19;18.00;90.30
21298;DHT22;10808;48.010;11.326;2024-03-08T12:48:52;17.90;90.50
21298;DHT22;10808;48.010;11.326;2024-03-08T12:51:20;17.90;90.40
21298;DHT22;10808;48.010;11.326;2024-03-08T12:53:46;17.80;87.30
21298;DHT22;10808;48.010;11.326;2024-03-08T12:56:14;17.70;90.20
21298;DHT22;10808;48.010;11.326;2024-03-08T12:58:41;17.80;90.50
21298;DHT22;10808;48.010;11.326;2024-03-08T13:01:10;17.80;87.90
21298;DHT22;10808;48.010;11.326;2024-03-08T13:03:37;17.70;87.80
21298;DHT22;10808;48.010;11.326;2024-03-08T13:06:05;17.70;89.80
21298;DHT22;10808;48.010;11.326;2024-03-08T13:08:37;17.80;88.30
21298;DHT22;10808;48.010;11.326;2024-03-08T13:11:08;18.00;89.10
21298;DHT22;10808;48.010;11.326;2024-03-08T13:13:37;18.10;87.50
21298;DHT22;10808;48.010;11.326;2024-03-08T13:16:06;18.10;87.50
21298;DHT22;10808;48.010;11.326;2024-03-08T13:18:37;18.00;86.60
21298;DHT22;10808;48.010;11.326;2024-03-08T13:21:04;18.00;87.70
21298;DHT22;10808;48.010;11.326;2024-03-08T13:23:34;18.20;87.40
21298;DHT22;10808;48.010;11.326;2024-03-08T13:26:10;18.40;88.20
21298;DHT22;10808;48.010;11.326;2024-03-08T13:28:43;18.60;85.50
21298;DHT22;10808;48.010;11.326;2024-03-08T13:31:09;18.70;85.60
21298;DHT22;10808;48.010;11.326;2024-03-08T13:33:36;18.70;84.70
21298;DHT22;10808;48.010;11.326;2024-03-08T13:36:08;18.60;83.30
21298;DHT22;10808;48.010;11.326;2024-03-08T13:38:44;18.50;83.00
21298;DHT22;10808;48.010;11.326;2024-03-08T13:41:11;18.70;83.90
21298;DHT22;10808;48.010;11.326;2024-03-08T13:43:38;18.70;84.60
21298;DHT22;10808;48.010;11.326;2024-03-08T13:46:05;18.90;83.90
21298;DHT22;10808;48.010;11.326;2024-03-08T13:48:36;19.00;84.00
21298;DHT22;10808;48.010;11.326;2024-03-08T13:51:04;19.10;83.20
21298;DHT22;10808;48.010;11.326;2024-03-08T13:53:31;19.10;82.00
21298;DHT22;10808;48.010;11.326;2024-03-08T13:55:59;19.10;80.50
21298;DHT22;10808;48.010;11.326;2024-03-08T13:58:26;19.20;81.00
21298;DHT22;10808;48.010;11.326;2024-03-08T14:00:52;19.30;83.10
21298;DHT22;10808;48.010;11.326;2024-03-08T14:03:18;19.30;81.30
21298;DHT22;10808;48.010;11.326;2024-03-08T14:05:44;19.60;83.20
21298;DHT22;10808;48.010;11.326;2024-03-08T14:08:11;19.90;81.70
21298;DHT22;10808;48.010;11.326;2024-03-08T14:10:40;19.80;79.60
21298;DHT22;10808;48.010;11.326;2024-03-08T14:13:08;19.80;81.90
21298;DHT22;10808;48.010;11.326;2024-03-08T14:15:34;20.00;81.20
21298;DHT22;10808;48.010;11.326;2024-03-08T14:18:01;20.00;79.20
21298;DHT22;10808;48.010;11.326;2024-03-08T14:20:27;19.80;78.20
21298;DHT22;10808;48.010;11.326;2024-03-08T14:22:54;20.00;80.80
21298;DHT22;10808;48.010;11.326;2024-03-08T14:25:21;20.30;80.60
21298;DHT22;10808;48.010;11.326;2024-03-08T14:27:50;20.40;79.00
21298;DHT22;10808;48.010;11.326;2024-03-08T14:30:20;20.50;77.90
21298;DHT22;10808;48.010;11.326;2024-03-08T14:32:58;20.60;78.60
21298;DHT22;10808;48.010;11.326;2024-03-08T14:35:26;20.70;79.10
21298;DHT22;10808;48.010;11.326;2024-03-08T14:37:52;20.70;76.40
21298;DHT22;10808;48.010;11.326;2024-03-08T14:40:18;20.40;75.80
21298;DHT22;10808;48.010;11.326;2024-03-08T14:42:51;20.30;77.70
21298;DHT22;10808;48.010;11.326;2024-03-08T14:45:17;20.30;79.30
21298;DHT22;10808;48.010;11.326;2024-03-08T14:47:49;20.40;77.60
21298;DHT22;10808;48.010;11.326;2024-03-08T14:50:23;20.30;78.00
21298;DHT22;10808;48.010;11.326;2024-03-08T14:52:50;20.50;78.90
21298;DHT22;10808;48.010;11.326;2024-03-08T14:55:20;20.50;78.30
21298;DHT22;10808;48.010;11.326;2024-03-08T14:57:51;20.50;77.90
21298;DHT22;10808;48.010;11.326;2024-03-08T15:00:18;20.30;75.40
21298;DHT22;10808;48.010;11.326;2024-03-08T15:03:00;20.10;78.40
21298;DHT22;10808;48.010;11.326;2024-03-08T15:05:28;20.10;78.40
21298;DHT22;10808;48.010;11.326;2024-03-08T15:07:54;20.30;79.70
21298;DHT22;10808;48.010;11.326;2024-03-08T15:10:21;20.10;78.70
21298;DHT22;10808;48.010;11.326;2024-03-08T15:12:50;19.80;76.30
21298;DHT22;10808;48.010;11.326;2024-03-08T15:15:21;19.70;79.10
21298;DHT22;10808;48.010;11.326;2024-03-08T15:17:49;19.60;78.30
21298;DHT22;10808;48.010;11.326;2024-03-08T15:20:15;19.50;78.40
21298;DHT22;10808;48.010;11.326;2024-03-08T15:22:50;19.20;78.80
21298;DHT22;10808;48.010;11.326;2024-03-08T15:25:17;18.90;80.80
21298;DHT22;10808;48.010;11.326;2024-03-08T15:27:49;18.70;79.20
21298;DHT22;10808;48.010;11.326;2024-03-08T15:30:15;18.50;79.20
21298;DHT22;10808;48.010;11.326;2024-03-08T15:32:45;18.30;81.00
21298;DHT22;10808;48.010;11.326;2024-03-08T15:35:11;18.00;78.90
21298;DHT22;10808;48.010;11.326;2024-03-08T15:37:45;17.60;79.20
21298;DHT22;10808;48.010;11.326;2024-03-08T15:40:12;17.40;81.70